createdAt,value
2024-03-12T16:01:50.933Z,23.40
2024-03-12T16:03:25.357Z,33.20
2024-03-12T16:04:59.085Z,30.80
2024-03-12T16:06:34.806Z,33.20
2024-03-12T16:08:10.689Z,32.00
2024-03-12T16:09:43.718Z,31.20
2024-03-12T16:11:17.625Z,32.00
2024-03-12T16:12:50.068Z,35.00
2024-03-12T16:14:23.206Z,30.60
2024-03-12T16:15:55.599Z,30.00
2024-03-12T16:17:32.311Z,33.00
2024-03-12T16:19:04.860Z,31.40
2024-03-12T16:20:38.108Z,30.40
2024-03-12T16:22:11.064Z,34.20
2024-03-12T16:23:43.654Z,32.00
2024-03-12T16:25:15.929Z,34.20
2024-03-12T16:26:48.311Z,29.20
2024-03-12T16:28:21.572Z,33.40
2024-03-12T16:29:53.811Z,33.20
2024-03-12T16:31:26.273Z,31.20
2024-03-12T16:32:59.161Z,33.00
2024-03-12T16:34:31.565Z,30.60
2024-03-12T16:36:04.389Z,28.60
2024-03-12T16:37:39.626Z,32.40
2024-03-12T16:39:12.104Z,24.60
2024-03-12T16:40:45.374Z,28.00
2024-03-12T16:42:17.680Z,29.60
2024-03-12T16:43:50.395Z,25.40
2024-03-12T16:45:24.187Z,29.40
2024-03-12T16:46:56.644Z,27.60
2024-03-12T16:48:30.380Z,31.80
2024-03-12T16:50:06.632Z,30.00
2024-03-12T16:51:40.194Z,28.20
2024-03-12T16:53:12.750Z,34.60
2024-03-12T16:54:45.725Z,30.40
2024-03-12T16:56:25.631Z,30.20
2024-03-12T16:57:59.126Z,29.80
2024-03-12T16:59:32.396Z,22.80
2024-03-12T17:01:07.828Z,29.80
2024-03-12T17:02:43.987Z,28.40
2024-03-12T17:04:17.447Z,31.60
2024-03-12T17:05:51.251Z,30.80
2024-03-12T17:07:25.712Z,26.40
2024-03-12T17:08:59.084Z,30.40
2024-03-12T17:10:34.978Z,27.60
2024-03-12T17:12:08.505Z,28.80
2024-03-12T17:13:41.334Z,27.80
2024-03-12T17:15:16.403Z,24.60
2024-03-12T17:16:49.215Z,26.80
2024-03-12T17:18:25.804Z,30.80
2024-03-12T17:19:58.664Z,28.60
2024-03-12T17:21:33.567Z,26.00
2024-03-12T17:23:08.544Z,29.00
2024-03-12T17:24:41.565Z,23.80
2024-03-12T17:26:16.607Z,28.80
2024-03-12T17:27:50.729Z,28.40
2024-03-12T17:29:29.399Z,30.00
2024-03-12T17:31:02.363Z,31.00
2024-03-12T17:32:34.970Z,24.20
2024-03-12T17:34:09.256Z,28.20
2024-03-12T17:35:42.387Z,31.40
2024-03-12T17:37:18.616Z,30.40
2024-03-12T17:38:51.875Z,30.00
2024-03-12T17:40:25.847Z,17.20
2024-03-12T17:41:59.178Z,25.80
2024-03-12T17:43:32.592Z,26.40
2024-03-12T17:45:07.902Z,28.60
2024-03-12T17:46:44.448Z,28.60
2024-03-12T17:48:16.911Z,29.20
2024-03-12T17:49:49.195Z,28.60
2024-03-12T17:51:21.902Z,31.80
2024-03-12T17:53:03.316Z,24.40
2024-03-12T17:54:40.630Z,29.80
2024-03-12T17:56:19.897Z,30.00
2024-03-12T17:57:52.911Z,27.40
2024-03-12T17:59:25.771Z,25.60
2024-03-12T18:00:58.409Z,21.40
2024-03-12T18:02:31.123Z,27.80
2024-03-12T18:04:04.226Z,30.80
2024-03-12T18:05:37.254Z,29.60
2024-03-12T18:07:25.783Z,33.00
2024-03-12T18:09:01.582Z,32.20
2024-03-12T18:10:34.449Z,40.40
2024-03-12T18:12:07.788Z,39.40
2024-03-12T18:13:40.430Z,45.60
2024-03-12T18:15:13.524Z,50.00
2024-03-12T18:16:47.183Z,50.80
2024-03-12T18:18:19.833Z,56.25
2024-03-12T18:19:52.565Z,62.75
2024-03-12T18:21:26.073Z,66.00
2024-03-12T18:22:58.894Z,69.00
2024-03-12T18:24:31.529Z,71.25
2024-03-12T18:26:04.148Z,79.50
2024-03-12T18:27:36.685Z,88.75
2024-03-12T18:29:10.277Z,92.00
2024-03-12T18:30:42.518Z,93.25
2024-03-12T18:32:16.087Z,110.00
2024-03-12T18:33:49.895Z,99.40
2024-03-12T18:35:22.622Z,113.00
2024-03-12T18:36:55.062Z,122.60
2024-03-12T18:38:27.605Z,115.25
2024-03-12T18:39:59.796Z,124.75
2024-03-12T18:41:32.062Z,124.25
2024-03-12T18:43:04.971Z,134.50
2024-03-12T18:44:37.731Z,131.25
2024-03-12T18:46:10.227Z,138.25
2024-03-12T18:47:43.404Z,141.50
2024-03-12T18:49:16.999Z,131.25
2024-03-12T18:50:50.577Z,137.00
2024-03-12T18:52:23.893Z,138.50
2024-03-12T18:53:56.663Z,142.00
2024-03-12T18:55:30.273Z,141.50
2024-03-12T18:57:03.072Z,140.75
2024-03-12T18:58:35.612Z,140.50
2024-03-12T19:00:11.131Z,142.00
2024-03-12T19:01:43.616Z,130.25
2024-03-12T19:03:19.002Z,141.50
2024-03-12T19:04:52.912Z,135.00
2024-03-12T19:06:27.411Z,131.50
2024-03-12T19:08:00.302Z,167.25
2024-03-12T19:09:33.182Z,160.75
2024-03-12T19:11:09.354Z,161.75
2024-03-12T19:12:42.083Z,140.50
2024-03-12T19:14:14.691Z,151.00
2024-03-12T19:15:47.185Z,137.75
2024-03-12T19:17:21.572Z,134.25
2024-03-12T19:18:54.097Z,148.00
2024-03-12T19:20:26.824Z,146.75
2024-03-12T19:21:59.610Z,148.00
2024-03-12T19:23:32.091Z,141.75
2024-03-12T19:25:08.274Z,146.75
2024-03-12T19:26:40.579Z,155.75
2024-03-12T19:28:14.102Z,141.25
2024-03-12T19:29:46.842Z,141.75
2024-03-12T19:31:19.864Z,149.50
2024-03-12T19:32:52.657Z,145.75
2024-03-12T19:34:27.076Z,146.75
2024-03-12T19:35:59.786Z,165.75
2024-03-12T19:37:36.309Z,154.00
2024-03-12T19:39:13.198Z,155.25
2024-03-12T19:40:46.054Z,160.25
2024-03-12T19:42:19.124Z,154.25
2024-03-12T19:43:51.547Z,154.50
2024-03-12T19:45:29.966Z,171.75
2024-03-12T19:47:04.166Z,162.75
2024-03-12T19:48:37.699Z,165.50
2024-03-12T19:50:13.051Z,155.25
2024-03-12T19:51:45.663Z,158.25
2024-03-12T19:53:17.990Z,165.50
2024-03-12T19:54:50.255Z,167.25
2024-03-12T19:56:23.340Z,159.50
2024-03-12T19:58:00.726Z,160.75
2024-03-12T19:59:33.709Z,156.50
2024-03-12T20:01:06.061Z,164.25
2024-03-12T20:02:38.264Z,166.00
2024-03-12T20:04:13.746Z,165.25
2024-03-12T20:05:45.950Z,161.50
2024-03-12T20:07:19.360Z,154.25
2024-03-12T20:08:52.897Z,151.75
2024-03-12T20:10:26.898Z,152.50
2024-03-12T20:11:59.084Z,148.25
2024-03-12T20:13:31.551Z,137.50
2024-03-12T20:15:05.861Z,143.75
2024-03-12T20:16:38.186Z,139.75
2024-03-12T20:18:11.046Z,141.50
2024-03-12T20:19:43.954Z,147.50
2024-03-12T20:21:18.264Z,133.00
2024-03-12T20:22:54.435Z,137.75
2024-03-12T20:24:26.734Z,128.50
2024-03-12T20:25:59.420Z,119.50
2024-03-12T20:27:31.951Z,119.75
2024-03-12T20:29:04.251Z,124.75
2024-03-12T20:30:36.519Z,114.00
2024-03-12T20:32:10.076Z,122.00
2024-03-12T20:33:42.584Z,114.60
2024-03-12T20:35:15.387Z,129.00
2024-03-12T20:36:48.570Z,120.20
2024-03-12T20:38:20.883Z,118.20
2024-03-12T20:39:53.269Z,104.00
2024-03-12T20:41:25.389Z,109.20
2024-03-12T20:43:00.676Z,110.20
2024-03-12T20:44:34.526Z,103.75
2024-03-12T20:46:06.833Z,104.00
2024-03-12T20:47:41.981Z,111.20
2024-03-12T20:49:14.741Z,116.00
2024-03-12T20:50:46.915Z,108.60
2024-03-12T20:52:22.375Z,98.00
2024-03-12T20:53:54.625Z,86.75
2024-03-12T20:55:26.954Z,96.60
2024-03-12T20:56:59.170Z,86.00
2024-03-12T20:58:31.846Z,85.50
2024-03-12T21:00:18.071Z,83.50
2024-03-12T21:01:51.137Z,83.00
2024-03-12T21:03:24.125Z,78.25
2024-03-12T21:04:57.068Z,85.00
2024-03-12T21:06:29.252Z,83.25
2024-03-12T21:08:01.491Z,80.00
2024-03-12T21:09:33.656Z,86.50
2024-03-12T21:11:06.272Z,84.75
2024-03-12T21:12:39.035Z,87.50
2024-03-12T21:14:11.625Z,91.00
2024-03-12T21:15:43.754Z,94.75
2024-03-12T21:17:17.570Z,82.50
2024-03-12T21:18:49.905Z,88.25
2024-03-12T21:20:34.009Z,87.75
2024-03-12T21:22:09.733Z,88.50
2024-03-12T21:23:42.148Z,90.75
2024-03-12T21:25:14.719Z,84.25
2024-03-12T21:26:47.337Z,83.00
2024-03-12T21:28:21.205Z,93.00
2024-03-12T21:29:53.596Z,88.00
2024-03-12T21:31:25.961Z,93.25
2024-03-12T21:32:58.976Z,93.75
2024-03-12T21:34:31.444Z,92.25
2024-03-12T21:36:04.452Z,96.50
2024-03-12T21:37:39.828Z,88.25
2024-03-12T21:39:15.968Z,92.25
2024-03-12T21:40:48.386Z,86.25
2024-03-12T21:42:23.242Z,99.80
2024-03-12T21:43:55.642Z,101.40
2024-03-12T21:45:28.448Z,101.50
2024-03-12T21:47:00.924Z,93.00
2024-03-12T21:48:34.047Z,102.00
2024-03-12T21:50:16.202Z,107.20
2024-03-12T21:53:38.991Z,104.20
2024-03-12T21:55:12.564Z,109.00
2024-03-12T21:56:45.577Z,115.20
2024-03-12T21:58:20.996Z,114.50
2024-03-12T21:59:54.272Z,101.50
2024-03-12T22:01:27.132Z,121.25
2024-03-12T22:02:59.793Z,116.60
2024-03-12T22:04:32.110Z,105.25
2024-03-12T22:06:04.684Z,126.00
2024-03-12T22:07:39.404Z,124.00
2024-03-12T22:09:13.035Z,122.75
2024-03-12T22:10:48.069Z,124.00
2024-03-12T22:12:21.428Z,126.75
2024-03-12T22:13:53.753Z,117.25
2024-03-12T22:15:26.171Z,135.25
2024-03-12T22:16:58.578Z,128.75
2024-03-12T22:18:31.095Z,104.40
2024-03-12T22:20:03.786Z,106.80
2024-03-12T22:21:37.521Z,140.75
2024-03-12T22:23:11.453Z,97.60
2024-03-12T22:24:43.690Z,100.00
2024-03-12T22:26:15.888Z,92.50
2024-03-12T22:27:49.538Z,83.50
2024-03-12T22:29:22.127Z,77.75
2024-03-12T22:30:55.297Z,74.75
2024-03-12T22:32:29.904Z,67.75
2024-03-12T22:34:02.265Z,67.25
2024-03-12T22:35:34.803Z,65.00
2024-03-12T22:37:08.435Z,76.50
2024-03-12T22:38:41.092Z,73.25
2024-03-12T22:40:14.077Z,69.00
2024-03-12T22:41:49.271Z,73.00
2024-03-12T22:43:24.228Z,66.00
2024-03-12T22:44:56.782Z,66.50
2024-03-12T22:46:29.305Z,56.50
2024-03-12T22:48:01.772Z,55.75
2024-03-12T22:49:34.188Z,60.50
2024-03-12T22:51:08.807Z,61.25
2024-03-12T22:52:42.243Z,54.00
2024-03-12T22:54:14.690Z,52.40
2024-03-12T22:55:47.355Z,56.25
2024-03-12T22:57:20.025Z,47.80
2024-03-12T22:58:52.821Z,51.80
2024-03-12T23:00:42.463Z,49.20
2024-03-12T23:02:19.048Z,50.00
2024-03-12T23:03:52.731Z,47.20
2024-03-12T23:05:29.046Z,46.20
2024-03-12T23:07:01.614Z,46.40
2024-03-12T23:08:34.254Z,48.40
2024-03-12T23:10:07.552Z,49.20
2024-03-12T23:11:42.520Z,48.80
2024-03-12T23:13:17.592Z,49.00
2024-03-12T23:14:51.705Z,48.60
2024-03-12T23:16:26.398Z,52.20
2024-03-12T23:17:59.185Z,45.20
2024-03-12T23:19:34.505Z,50.20
2024-03-12T23:21:08.039Z,50.80
2024-03-12T23:22:43.054Z,45.20
2024-03-12T23:24:15.770Z,48.00
2024-03-12T23:25:48.820Z,49.20
2024-03-12T23:27:21.216Z,51.80
2024-03-12T23:28:53.816Z,49.40
2024-03-12T23:30:27.144Z,47.80
2024-03-12T23:32:00.096Z,47.40
2024-03-12T23:33:32.642Z,50.60
